createdAt,value
2023-04-01T00:00:23.431Z,93769.00
2023-04-01T00:01:23.512Z,93768.00
2023-04-01T00:02:23.602Z,93766.00
2023-04-01T00:03:23.936Z,93762.00
2023-04-01T00:04:23.691Z,93764.00
2023-04-01T00:05:23.649Z,93764.00
2023-04-01T00:06:23.655Z,93762.00
2023-04-01T00:07:23.721Z,93762.00
2023-04-01T00:08:23.735Z,93762.00
2023-04-01T00:09:23.788Z,93760.00
2023-04-01T00:10:23.836Z,93764.00
2023-04-01T00:11:23.946Z,93766.00
2023-04-01T00:12:23.961Z,93768.00
2023-04-01T00:13:23.976Z,93766.00
2023-04-01T00:14:24.018Z,93762.00
2023-04-01T00:15:23.986Z,93762.00
2023-04-01T00:16:24.064Z,93766.00
2023-04-01T00:17:23.992Z,93768.00
2023-04-01T00:18:24.049Z,93766.00
2023-04-01T00:19:24.108Z,93768.00
2023-04-01T00:20:24.161Z,93768.00
2023-04-01T00:21:24.208Z,93768.00
2023-04-01T00:22:24.240Z,93768.00
2023-04-01T00:23:24.307Z,93766.00
2023-04-01T00:24:24.355Z,93764.00
2023-04-01T00:25:24.408Z,93764.00
2023-04-01T00:26:24.466Z,93760.00
2023-04-01T00:27:24.473Z,93756.00
2023-04-01T00:28:24.515Z,93754.00
2023-04-01T00:29:24.584Z,93754.00
2023-04-01T00:30:24.639Z,93758.00
2023-04-01T00:31:24.718Z,93750.00
2023-04-01T00:32:24.750Z,93752.00
2023-04-01T00:33:24.723Z,93750.00
2023-04-01T00:34:24.724Z,93750.00
2023-04-01T00:35:24.733Z,93750.00
2023-04-01T00:36:24.777Z,93754.00
2023-04-01T00:37:24.751Z,93756.00
2023-04-01T00:38:24.834Z,93758.00
2023-04-01T00:39:24.795Z,93756.00
2023-04-01T00:40:24.817Z,93756.00
2023-04-01T00:41:24.820Z,93754.00
2023-04-01T00:42:24.843Z,93752.00
2023-04-01T00:43:24.889Z,93750.00
2023-04-01T00:44:24.937Z,93754.00
2023-04-01T00:45:24.938Z,93750.00
2023-04-01T00:46:24.996Z,93748.00
2023-04-01T00:47:25.051Z,93746.00
2023-04-01T00:48:25.045Z,93744.00
2023-04-01T00:49:25.052Z,93752.00
2023-04-01T00:50:25.120Z,93756.00
2023-04-01T00:51:25.139Z,93756.00
2023-04-01T00:52:25.204Z,93752.00
2023-04-01T00:53:25.175Z,93756.00
2023-04-01T00:54:25.210Z,93752.00
2023-04-01T00:55:25.298Z,93754.00
2023-04-01T00:56:25.299Z,93754.00
2023-04-01T00:57:25.350Z,93754.00
2023-04-01T00:58:25.334Z,93754.00
2023-04-01T00:59:25.368Z,93754.00
2023-04-01T01:00:25.322Z,93746.00
2023-04-01T01:01:25.535Z,93746.00
2023-04-01T01:02:25.480Z,93750.00
2023-04-01T01:03:25.515Z,93752.00
2023-04-01T01:04:25.438Z,93754.00
2023-04-01T01:05:26.274Z,93750.00
2023-04-01T01:06:25.525Z,93744.00
2023-04-01T01:07:25.645Z,93742.00
2023-04-01T01:08:25.730Z,93738.00
2023-04-01T01:09:25.684Z,93740.00
2023-04-01T01:10:25.667Z,93742.00
2023-04-01T01:11:26.666Z,93742.00
2023-04-01T01:12:25.666Z,93746.00
2023-04-01T01:13:25.678Z,93744.00
2023-04-01T01:14:25.687Z,93742.00
2023-04-01T01:15:25.725Z,93740.00
2023-04-01T01:16:25.735Z,93740.00
2023-04-01T01:17:25.776Z,93738.00
2023-04-01T01:18:25.722Z,93740.00
2023-04-01T01:19:25.770Z,93736.00
2023-04-01T01:20:26.779Z,93734.00
2023-04-01T01:21:25.841Z,93736.00
2023-04-01T01:22:25.917Z,93732.00
2023-04-01T01:23:25.950Z,93729.00
2023-04-01T01:24:25.986Z,93729.00
2023-04-01T01:25:26.003Z,93730.00
2023-04-01T01:26:26.020Z,93732.00
2023-04-01T01:27:26.079Z,93734.00
2023-04-01T01:28:26.031Z,93734.00
2023-04-01T01:29:26.029Z,93732.00
2023-04-01T01:30:26.071Z,93732.00
2023-04-01T01:31:26.092Z,93734.00
2023-04-01T01:32:26.173Z,93732.00
2023-04-01T01:33:26.206Z,93736.00
2023-04-01T01:34:26.209Z,93738.00
2023-04-01T01:35:26.230Z,93736.00
2023-04-01T01:36:26.277Z,93732.00
2023-04-01T01:37:26.287Z,93730.00
2023-04-01T01:38:26.300Z,93734.00
2023-04-01T01:39:26.334Z,93732.00
2023-04-01T01:40:26.344Z,93734.00
2023-04-01T01:41:26.320Z,93734.00
2023-04-01T01:42:26.331Z,93732.00
2023-04-01T01:43:26.330Z,93730.00
2023-04-01T01:44:26.337Z,93730.00
2023-04-01T01:45:26.377Z,93730.00
2023-04-01T01:46:26.431Z,93725.00
2023-04-01T01:47:26.407Z,93727.00
2023-04-01T01:48:26.406Z,93721.00
2023-04-01T01:49:26.363Z,93719.00
2023-04-01T01:50:26.408Z,93721.00
2023-04-01T01:51:26.422Z,93721.00
2023-04-01T01:52:26.451Z,93721.00
2023-04-01T01:53:26.464Z,93723.00
2023-04-01T01:54:26.483Z,93723.00
2023-04-01T01:55:26.486Z,93723.00
2023-04-01T01:56:26.482Z,93721.00
2023-04-01T01:57:26.517Z,93719.00
2023-04-01T01:58:26.535Z,93719.00
2023-04-01T01:59:26.497Z,93715.00
2023-04-01T02:00:26.528Z,93717.00
2023-04-01T02:01:26.825Z,93717.00
2023-04-01T02:02:26.618Z,93715.00
2023-04-01T02:03:26.563Z,93715.00
2023-04-01T02:04:26.644Z,93711.00
2023-04-01T02:05:26.577Z,93707.00
2023-04-01T02:06:26.586Z,93709.00
2023-04-01T02:07:26.644Z,93711.00
2023-04-01T02:08:26.662Z,93711.00
2023-04-01T02:09:26.693Z,93707.00
2023-04-01T02:10:26.726Z,93707.00
2023-04-01T02:11:26.766Z,93709.00
2023-04-01T02:12:26.838Z,93705.00
2023-04-01T02:13:26.826Z,93703.00
2023-04-01T02:14:26.874Z,93705.00
2023-04-01T02:15:26.894Z,93707.00
2023-04-01T02:16:27.018Z,93707.00
2023-04-01T02:17:26.979Z,93709.00
2023-04-01T02:18:27.010Z,93711.00
2023-04-01T02:19:27.034Z,93713.00
2023-04-01T02:20:27.060Z,93717.00
2023-04-01T02:21:27.120Z,93717.00
2023-04-01T02:22:27.098Z,93719.00
2023-04-01T02:23:27.121Z,93723.00
2023-04-01T02:24:27.168Z,93723.00
2023-04-01T02:25:27.152Z,93725.00
2023-04-01T02:26:27.091Z,93730.00
2023-04-01T02:27:27.121Z,93730.00
2023-04-01T02:28:27.101Z,93729.00
2023-04-01T02:29:27.084Z,93729.00
2023-04-01T02:30:27.125Z,93727.00
2023-04-01T02:31:27.116Z,93729.00
2023-04-01T02:32:27.140Z,93729.00
2023-04-01T02:33:27.101Z,93730.00
2023-04-01T02:34:27.083Z,93732.00
2023-04-01T02:35:27.094Z,93729.00
2023-04-01T02:36:27.201Z,93734.00
2023-04-01T02:37:27.090Z,93738.00
2023-04-01T02:38:27.075Z,93736.00
2023-04-01T02:39:27.040Z,93738.00
2023-04-01T02:40:27.086Z,93736.00
2023-04-01T02:41:27.098Z,93736.00
2023-04-01T02:42:27.103Z,93732.00
2023-04-01T02:43:27.141Z,93730.00
2023-04-01T02:44:27.171Z,93729.00
2023-04-01T02:45:27.202Z,93730.00
2023-04-01T02:46:27.263Z,93734.00
2023-04-01T02:47:27.214Z,93732.00
2023-04-01T02:48:27.179Z,93734.00
2023-04-01T02:49:27.211Z,93734.00
2023-04-01T02:50:27.188Z,93740.00
2023-04-01T02:51:27.161Z,93740.00
2023-04-01T02:52:27.176Z,93738.00
2023-04-01T02:53:27.195Z,93742.00
2023-04-01T02:54:27.188Z,93742.00
2023-04-01T02:55:27.229Z,93744.00
2023-04-01T02:56:27.202Z,93746.00
2023-04-01T02:57:27.355Z,93746.00
2023-04-01T02:58:27.240Z,93748.00
2023-04-01T02:59:27.211Z,93750.00
2023-04-01T03:00:27.226Z,93754.00
2023-04-01T03:01:27.271Z,93756.00
2023-04-01T03:02:27.294Z,93758.00
2023-04-01T03:03:27.263Z,93762.00
2023-04-01T03:04:27.262Z,93764.00
2023-04-01T03:05:27.271Z,93766.00
2023-04-01T03:06:27.229Z,93766.00
2023-04-01T03:07:27.219Z,93764.00
2023-04-01T03:08:27.231Z,93768.00
2023-04-01T03:09:27.236Z,93769.00
2023-04-01T03:10:27.196Z,93771.00
2023-04-01T03:11:27.267Z,93771.00
2023-04-01T03:12:27.228Z,93776.00
2023-04-01T03:13:27.218Z,93777.00
2023-04-01T03:14:27.235Z,93779.00
2023-04-01T03:15:27.206Z,93783.00
2023-04-01T03:16:27.250Z,93779.00
2023-04-01T03:17:27.241Z,93779.00
2023-04-01T03:18:27.152Z,93781.00
2023-04-01T03:19:27.153Z,93785.00
2023-04-01T03:20:27.156Z,93791.00
2023-04-01T03:21:27.163Z,93789.00
2023-04-01T03:22:27.197Z,93791.00
2023-04-01T03:23:27.174Z,93791.00
2023-04-01T03:24:27.190Z,93795.00
2023-04-01T03:25:27.190Z,93797.00
2023-04-01T03:26:27.209Z,93801.00
2023-04-01T03:27:27.216Z,93799.00
2023-04-01T03:28:27.224Z,93793.00
2023-04-01T03:29:27.194Z,93791.00
2023-04-01T03:30:27.265Z,93789.00
2023-04-01T03:31:27.265Z,93787.00
2023-04-01T03:32:27.200Z,93789.00
2023-04-01T03:33:27.150Z,93795.00
2023-04-01T03:34:27.163Z,93793.00
2023-04-01T03:35:27.149Z,93795.00
2023-04-01T03:36:27.155Z,93795.00
2023-04-01T03:37:27.124Z,93793.00
2023-04-01T03:38:27.154Z,93797.00
2023-04-01T03:39:27.149Z,93797.00
2023-04-01T03:40:27.150Z,93795.00
2023-04-01T03:41:27.158Z,93797.00
2023-04-01T03:42:27.194Z,93797.00
2023-04-01T03:43:27.186Z,93797.00
2023-04-01T03:44:27.185Z,93795.00
2023-04-01T03:45:27.152Z,93795.00
2023-04-01T03:46:27.165Z,93793.00
2023-04-01T03:47:27.214Z,93793.00
2023-04-01T03:48:27.167Z,93797.00
2023-04-01T03:49:27.185Z,93799.00
2023-04-01T03:50:27.208Z,93795.00
2023-04-01T03:51:27.181Z,93797.00
2023-04-01T03:52:27.179Z,93797.00
2023-04-01T03:53:27.174Z,93795.00
2023-04-01T03:54:27.190Z,93795.00
2023-04-01T03:55:27.225Z,93795.00
2023-04-01T03:56:27.160Z,93797.00
2023-04-01T03:57:27.182Z,93797.00
2023-04-01T03:58:27.142Z,93797.00
2023-04-01T03:59:27.250Z,93797.00
2023-04-01T04:00:27.202Z,93797.00
2023-04-01T04:01:27.242Z,93799.00
2023-04-01T04:02:27.266Z,93797.00
2023-04-01T04:03:27.336Z,93797.00
2023-04-01T04:04:27.304Z,93795.00
2023-04-01T04:05:27.217Z,93797.00
2023-04-01T04:06:27.236Z,93803.00
2023-04-01T04:07:27.246Z,93803.00
2023-04-01T04:08:27.216Z,93805.00
2023-04-01T04:09:27.248Z,93803.00
2023-04-01T04:10:27.187Z,93805.00
2023-04-01T04:11:27.214Z,93805.00
2023-04-01T04:12:27.212Z,93809.00
2023-04-01T04:13:27.250Z,93805.00
2023-04-01T04:14:27.246Z,93805.00
2023-04-01T04:15:27.291Z,93805.00
2023-04-01T04:16:27.375Z,93805.00
2023-04-01T04:17:27.314Z,93805.00
2023-04-01T04:18:27.301Z,93807.00
2023-04-01T04:19:27.362Z,93809.00
2023-04-01T04:20:27.412Z,93807.00
2023-04-01T04:21:27.389Z,93813.00
2023-04-01T04:22:27.375Z,93813.00
2023-04-01T04:23:27.417Z,93815.00
2023-04-01T04:24:27.376Z,93815.00
2023-04-01T04:25:27.363Z,93819.00
2023-04-01T04:26:27.368Z,93823.00
2023-04-01T04:27:27.360Z,93828.00
2023-04-01T04:28:27.418Z,93830.00
2023-04-01T04:29:27.430Z,93830.00
2023-04-01T04:30:27.462Z,93830.00
2023-04-01T04:31:27.561Z,93830.00
2023-04-01T04:32:29.342Z,93830.00
2023-04-01T04:33:27.583Z,93832.00
2023-04-01T04:34:27.578Z,93834.00
2023-04-01T04:35:27.631Z,93836.00
2023-04-01T04:36:27.639Z,93836.00
2023-04-01T04:37:27.646Z,93836.00
2023-04-01T04:38:27.723Z,93838.00
2023-04-01T04:39:27.689Z,93838.00
2023-04-01T04:40:27.725Z,93836.00
2023-04-01T04:41:27.724Z,93832.00
2023-04-01T04:42:27.666Z,93836.00
2023-04-01T04:43:27.653Z,93840.00
2023-04-01T04:44:27.682Z,93838.00
2023-04-01T04:45:27.688Z,93836.00
2023-04-01T04:46:27.682Z,93834.00
2023-04-01T04:47:27.676Z,93828.00
2023-04-01T04:48:27.652Z,93832.00
2023-04-01T04:49:27.660Z,93836.00
2023-04-01T04:50:27.659Z,93840.00
2023-04-01T04:51:27.653Z,93840.00
2023-04-01T04:52:27.686Z,93840.00
2023-04-01T04:53:27.729Z,93844.00
2023-04-01T04:54:27.754Z,93842.00
2023-04-01T04:55:27.719Z,93844.00
2023-04-01T04:56:27.762Z,93846.00
2023-04-01T04:57:27.895Z,93844.00
2023-04-01T04:58:27.905Z,93842.00
2023-04-01T04:59:27.826Z,93838.00
2023-04-01T05:00:27.834Z,93838.00
2023-04-01T05:01:27.847Z,93838.00
2023-04-01T05:02:27.899Z,93838.00
2023-04-01T05:03:27.833Z,93840.00
2023-04-01T05:04:27.764Z,93840.00
2023-04-01T05:05:27.773Z,93848.00
2023-04-01T05:06:27.774Z,93848.00
2023-04-01T05:07:27.750Z,93848.00
2023-04-01T05:08:27.754Z,93852.00
2023-04-01T05:09:27.767Z,93854.00
2023-04-01T05:10:27.824Z,93854.00
2023-04-01T05:11:27.824Z,93860.00
2023-04-01T05:12:27.851Z,93862.00
2023-04-01T05:13:27.806Z,93866.00
2023-04-01T05:14:27.816Z,93866.00
2023-04-01T05:15:27.868Z,93868.00
2023-04-01T05:16:27.945Z,93868.00
2023-04-01T05:17:27.869Z,93864.00
2023-04-01T05:18:27.863Z,93864.00
2023-04-01T05:19:27.848Z,93860.00
2023-04-01T05:20:27.892Z,93858.00
2023-04-01T05:21:27.826Z,93860.00
2023-04-01T05:22:27.896Z,93860.00
2023-04-01T05:23:27.854Z,93860.00
2023-04-01T05:24:27.860Z,93858.00
2023-04-01T05:25:27.874Z,93860.00
2023-04-01T05:26:27.859Z,93858.00
2023-04-01T05:27:27.862Z,93860.00
2023-04-01T05:28:27.844Z,93862.00
2023-04-01T05:29:27.836Z,93862.00
2023-04-01T05:30:27.862Z,93866.00
2023-04-01T05:31:27.967Z,93868.00
2023-04-01T05:32:28.028Z,93870.00
2023-04-01T05:33:27.862Z,93868.00
2023-04-01T05:34:27.838Z,93868.00
2023-04-01T05:35:27.846Z,93868.00
2023-04-01T05:36:27.854Z,93868.00
2023-04-01T05:37:27.882Z,93868.00
2023-04-01T05:38:27.814Z,93864.00
2023-04-01T05:39:27.804Z,93866.00
2023-04-01T05:40:27.804Z,93860.00
2023-04-01T05:41:27.780Z,93858.00
2023-04-01T05:42:27.791Z,93854.00
2023-04-01T05:43:27.854Z,93856.00
2023-04-01T05:44:27.781Z,93854.00
2023-04-01T05:45:27.784Z,93852.00
2023-04-01T05:46:27.830Z,93856.00
2023-04-01T05:47:27.795Z,93854.00
2023-04-01T05:48:27.807Z,93852.00
2023-04-01T05:49:28.936Z,93856.00
2023-04-01T05:50:27.821Z,93852.00
2023-04-01T05:51:27.854Z,93854.00
2023-04-01T05:52:27.867Z,93856.00
2023-04-01T05:53:27.874Z,93856.00
2023-04-01T05:54:27.891Z,93860.00
2023-04-01T05:55:27.942Z,93866.00
2023-04-01T05:56:27.940Z,93868.00
2023-04-01T05:57:27.964Z,93868.00
2023-04-01T05:58:27.939Z,93864.00
2023-04-01T05:59:27.940Z,93866.00
2023-04-01T06:00:27.964Z,93868.00
2023-04-01T06:01:28.009Z,93871.00
2023-04-01T06:02:28.059Z,93871.00
2023-04-01T06:03:28.198Z,93873.00
2023-04-01T06:04:28.124Z,93871.00
2023-04-01T06:05:28.108Z,93870.00
2023-04-01T06:06:28.125Z,93868.00
2023-04-01T06:07:28.110Z,93864.00
2023-04-01T06:08:28.137Z,93866.00
2023-04-01T06:09:28.185Z,93868.00
2023-04-01T06:10:28.270Z,93868.00
2023-04-01T06:11:28.219Z,93873.00
2023-04-01T06:12:28.267Z,93871.00
2023-04-01T06:13:28.304Z,93871.00
2023-04-01T06:14:28.344Z,93873.00
2023-04-01T06:15:28.397Z,93877.00
2023-04-01T06:16:28.502Z,93875.00
2023-04-01T06:17:28.547Z,93877.00
2023-04-01T06:18:28.547Z,93875.00
2023-04-01T06:19:28.616Z,93887.00
2023-04-01T06:20:28.699Z,93885.00
2023-04-01T06:21:28.775Z,93887.00
2023-04-01T06:22:28.806Z,93885.00
2023-04-01T06:23:28.870Z,93887.00
2023-04-01T06:24:28.943Z,93891.00
2023-04-01T06:25:28.936Z,93893.00
2023-04-01T06:26:29.013Z,93891.00
2023-04-01T06:27:29.064Z,93891.00
2023-04-01T06:28:29.133Z,93891.00
2023-04-01T06:29:29.177Z,93887.00
2023-04-01T06:30:29.291Z,93887.00
2023-04-01T06:31:29.366Z,93885.00
2023-04-01T06:32:29.439Z,93887.00
2023-04-01T06:33:29.414Z,93891.00
2023-04-01T06:34:29.484Z,93895.00
2023-04-01T06:35:29.556Z,93897.00
2023-04-01T06:36:29.661Z,93895.00
2023-04-01T06:37:29.659Z,93893.00
2023-04-01T06:38:29.686Z,93889.00
2023-04-01T06:39:29.694Z,93885.00
2023-04-01T06:40:29.774Z,93877.00
2023-04-01T06:41:29.812Z,93873.00
2023-04-01T06:42:29.903Z,93807.00
2023-04-01T06:43:29.878Z,93819.00
2023-04-01T06:44:29.969Z,93815.00
2023-04-01T06:45:29.934Z,93815.00
2023-04-01T06:46:29.947Z,93813.00
2023-04-01T06:47:30.017Z,93815.00
2023-04-01T06:48:29.989Z,93817.00
2023-04-01T06:49:30.045Z,93815.00
2023-04-01T06:50:30.126Z,93817.00
2023-04-01T06:51:30.135Z,93819.00
2023-04-01T06:52:30.203Z,93823.00
2023-04-01T06:53:30.249Z,93824.00
2023-04-01T06:54:30.302Z,93824.00
2023-04-01T06:55:30.351Z,93826.00
2023-04-01T06:56:30.427Z,93826.00
2023-04-01T06:57:30.601Z,93823.00
2023-04-01T06:58:30.484Z,93821.00
2023-04-01T06:59:30.538Z,93823.00
2023-04-01T07:00:30.606Z,93826.00
2023-04-01T07:01:30.676Z,93828.00
2023-04-01T07:02:30.701Z,93828.00
2023-04-01T07:03:30.712Z,93828.00
2023-04-01T07:04:30.800Z,93828.00
2023-04-01T07:05:31.008Z,93824.00
2023-04-01T07:06:30.830Z,93826.00
2023-04-01T07:07:30.904Z,93824.00
2023-04-01T07:08:30.904Z,93828.00
2023-04-01T07:09:30.953Z,93828.00
2023-04-01T07:10:31.038Z,93826.00
2023-04-01T07:11:31.070Z,93824.00
2023-04-01T07:12:31.157Z,93826.00
2023-04-01T07:13:31.160Z,93826.00
2023-04-01T07:14:31.236Z,93826.00
2023-04-01T07:15:31.383Z,93828.00
2023-04-01T07:16:31.312Z,93830.00
2023-04-01T07:17:31.415Z,93828.00
2023-04-01T07:18:31.381Z,93830.00
2023-04-01T07:19:31.423Z,93832.00
2023-04-01T07:20:31.464Z,93828.00
2023-04-01T07:21:32.113Z,93828.00
2023-04-01T07:22:31.539Z,93828.00
2023-04-01T07:23:31.613Z,93830.00
2023-04-01T07:24:31.672Z,93826.00
2023-04-01T07:25:31.853Z,93826.00
2023-04-01T07:26:31.784Z,93824.00
2023-04-01T07:27:31.816Z,93860.00
2023-04-01T07:28:31.835Z,93858.00
2023-04-01T07:29:31.864Z,93856.00
2023-04-01T07:30:31.947Z,93854.00
2023-04-01T07:31:32.061Z,93856.00
2023-04-01T07:32:32.864Z,93862.00
2023-04-01T07:33:32.055Z,93860.00
2023-04-01T07:34:32.025Z,93860.00
2023-04-01T07:35:32.418Z,93860.00
2023-04-01T07:36:32.179Z,93860.00
2023-04-01T07:37:32.173Z,93862.00
2023-04-01T07:38:32.273Z,93866.00
2023-04-01T07:39:32.232Z,93864.00
2023-04-01T07:40:32.247Z,93868.00
2023-04-01T07:41:32.262Z,93871.00
2023-04-01T07:42:32.297Z,93871.00
2023-04-01T07:43:32.344Z,93873.00
2023-04-01T07:44:32.360Z,93873.00
2023-04-01T07:45:32.680Z,93871.00
2023-04-01T07:46:32.424Z,93871.00
2023-04-01T07:47:32.469Z,93870.00
2023-04-01T07:48:32.445Z,93871.00
2023-04-01T07:49:32.475Z,93871.00
2023-04-01T07:50:39.228Z,93871.00
2023-04-01T07:51:32.544Z,93873.00
2023-04-01T07:52:32.544Z,93873.00
2023-04-01T07:53:32.497Z,93858.00
2023-04-01T07:54:32.477Z,93826.00
2023-04-01T07:55:32.653Z,93832.00
2023-04-01T07:56:32.462Z,93834.00
2023-04-01T07:57:32.525Z,93838.00
2023-04-01T07:58:32.499Z,93840.00
2023-04-01T07:59:32.488Z,93842.00
2023-04-01T08:00:32.470Z,93844.00
2023-04-01T08:01:32.529Z,93846.00
2023-04-01T08:02:32.569Z,93846.00
2023-04-01T08:03:32.576Z,93844.00
2023-04-01T08:04:32.430Z,93842.00
2023-04-01T08:05:32.569Z,93838.00
2023-04-01T08:06:32.433Z,93834.00
2023-04-01T08:07:32.377Z,93834.00
2023-04-01T08:08:32.523Z,93838.00
2023-04-01T08:09:32.406Z,93838.00
2023-04-01T08:10:32.417Z,93836.00
2023-04-01T08:11:32.390Z,93834.00
2023-04-01T08:12:32.327Z,93832.00
2023-04-01T08:13:32.379Z,93828.00
2023-04-01T08:14:32.402Z,93824.00
2023-04-01T08:15:32.511Z,93826.00
2023-04-01T08:16:32.378Z,93826.00
2023-04-01T08:17:32.329Z,93826.00
2023-04-01T08:18:32.314Z,93824.00
2023-04-01T08:19:32.309Z,93823.00
2023-04-01T08:20:32.275Z,93824.00
2023-04-01T08:21:32.333Z,93826.00
2023-04-01T08:22:32.295Z,93826.00
2023-04-01T08:23:32.290Z,93826.00
2023-04-01T08:24:44.403Z,93824.00
2023-04-01T08:25:33.422Z,93824.00
2023-04-01T08:26:32.271Z,93823.00
2023-04-01T08:27:32.261Z,93819.00
2023-04-01T08:28:32.228Z,93819.00
2023-04-01T08:29:32.282Z,93815.00
2023-04-01T08:30:32.251Z,93811.00
2023-04-01T08:31:32.319Z,93809.00
2023-04-01T08:32:32.233Z,93805.00
2023-04-01T08:33:32.253Z,93807.00
2023-04-01T08:34:32.252Z,93807.00
2023-04-01T08:35:33.290Z,93805.00
2023-04-01T08:36:32.363Z,93807.00
2023-04-01T08:37:32.205Z,93809.00
2023-04-01T08:38:32.288Z,93811.00
2023-04-01T08:39:32.189Z,93809.00
2023-04-01T08:40:32.202Z,93805.00
2023-04-01T08:41:32.352Z,93805.00
2023-04-01T08:42:32.365Z,93805.00
2023-04-01T08:43:32.429Z,93805.00
2023-04-01T08:44:32.524Z,93807.00
2023-04-01T08:45:32.904Z,93805.00
2023-04-01T08:46:32.593Z,93807.00
2023-04-01T08:47:32.755Z,93805.00
2023-04-01T08:48:32.761Z,93803.00
2023-04-01T08:49:32.763Z,93805.00
2023-04-01T08:50:32.827Z,93805.00
2023-04-01T08:51:32.868Z,93805.00
2023-04-01T08:52:32.961Z,93803.00
2023-04-01T08:53:32.963Z,93805.00
2023-04-01T08:54:32.982Z,93803.00
2023-04-01T08:55:33.238Z,93805.00
2023-04-01T08:56:33.114Z,93803.00
2023-04-01T08:57:33.334Z,93803.00
2023-04-01T08:58:33.183Z,93801.00
2023-04-01T08:59:33.241Z,93803.00
2023-04-01T09:00:33.276Z,93797.00
2023-04-01T09:01:33.275Z,93801.00
2023-04-01T09:02:33.409Z,93799.00
2023-04-01T09:03:33.420Z,93799.00
2023-04-01T09:04:33.554Z,93799.00
2023-04-01T09:05:33.596Z,93801.00
2023-04-01T09:06:33.467Z,93801.00
2023-04-01T09:07:33.474Z,93799.00
2023-04-01T09:08:33.570Z,93799.00
2023-04-01T09:09:33.555Z,93799.00
2023-04-01T09:10:33.601Z,93799.00
2023-04-01T09:11:33.663Z,93797.00
2023-04-01T09:12:33.691Z,93799.00
2023-04-01T09:13:33.667Z,93795.00
2023-04-01T09:14:33.781Z,93793.00
2023-04-01T09:15:33.902Z,93789.00
2023-04-01T09:16:33.860Z,93783.00
2023-04-01T09:17:33.877Z,93781.00
2023-04-01T09:18:33.832Z,93781.00
2023-04-01T09:19:33.872Z,93777.00
2023-04-01T09:20:33.954Z,93779.00
2023-04-01T09:21:33.971Z,93781.00
2023-04-01T09:22:33.974Z,93781.00
2023-04-01T09:23:34.007Z,93781.00
2023-04-01T09:24:34.002Z,93777.00
2023-04-01T09:25:34.235Z,93777.00
2023-04-01T09:26:34.088Z,93776.00
2023-04-01T09:27:34.109Z,93771.00
2023-04-01T09:28:34.154Z,93776.00
2023-04-01T09:29:34.189Z,93776.00
2023-04-01T09:30:34.288Z,93776.00
2023-04-01T09:31:34.344Z,93776.00
2023-04-01T09:32:34.374Z,93771.00
2023-04-01T09:33:34.324Z,93771.00
2023-04-01T09:34:34.331Z,93801.00
2023-04-01T09:35:34.515Z,93801.00
2023-04-01T09:36:34.410Z,93795.00
2023-04-01T09:37:34.414Z,93799.00
2023-04-01T09:38:34.497Z,93797.00
2023-04-01T09:39:34.485Z,93795.00
2023-04-01T09:40:34.499Z,93791.00
2023-04-01T09:41:34.533Z,93793.00
2023-04-01T09:42:34.553Z,93791.00
2023-04-01T09:43:34.661Z,93789.00
2023-04-01T09:44:34.640Z,93787.00
2023-04-01T09:45:34.816Z,93787.00
2023-04-01T09:46:34.775Z,93781.00
2023-04-01T09:47:34.744Z,93781.00
2023-04-01T09:48:34.733Z,93715.00
2023-04-01T09:49:34.788Z,93732.00
2023-04-01T09:50:34.842Z,93732.00
2023-04-01T09:51:34.892Z,93729.00
2023-04-01T09:52:34.945Z,93732.00
2023-04-01T09:53:34.926Z,93734.00
2023-04-01T09:54:35.003Z,93732.00
2023-04-01T09:55:35.187Z,93729.00
2023-04-01T09:56:35.057Z,93730.00
2023-04-01T09:57:35.164Z,93729.00
2023-04-01T09:58:35.106Z,93725.00
2023-04-01T09:59:36.120Z,93723.00
2023-04-01T10:00:35.091Z,93721.00
2023-04-01T10:01:35.132Z,93717.00
2023-04-01T10:03:35.081Z,93717.00
2023-04-01T10:04:35.063Z,93719.00
2023-04-01T10:05:35.384Z,93721.00
2023-04-01T10:06:35.076Z,93719.00
2023-04-01T10:07:35.102Z,93723.00
2023-04-01T10:08:35.035Z,93723.00
2023-04-01T10:09:35.049Z,93719.00
2023-04-01T10:10:35.054Z,93717.00
2023-04-01T10:11:35.067Z,93715.00
2023-04-01T10:12:35.096Z,93711.00
2023-04-01T10:13:35.115Z,93713.00
2023-04-01T10:14:35.150Z,93717.00
2023-04-01T10:15:35.370Z,93715.00
2023-04-01T10:16:35.209Z,93713.00
2023-04-01T10:17:42.829Z,93711.00
2023-04-01T10:18:35.266Z,93709.00
2023-04-01T10:19:35.201Z,93707.00
2023-04-01T10:20:35.170Z,93707.00
2023-04-01T10:21:35.220Z,93707.00
2023-04-01T10:22:35.232Z,93699.00
2023-04-01T10:23:35.147Z,93701.00
2023-04-01T10:24:35.187Z,93699.00
2023-04-01T10:25:35.254Z,93703.00
2023-04-01T10:26:35.169Z,93701.00
2023-04-01T10:27:35.108Z,93701.00
2023-04-01T10:28:35.114Z,93705.00
2023-04-01T10:29:35.121Z,93701.00
2023-04-01T10:30:35.159Z,93697.00
2023-04-01T10:31:35.119Z,93697.00
2023-04-01T10:32:35.130Z,93695.00
2023-04-01T10:33:35.076Z,93695.00
2023-04-01T10:34:35.090Z,93693.00
2023-04-01T10:35:35.296Z,93693.00
2023-04-01T10:36:35.061Z,93693.00
2023-04-01T10:37:35.070Z,93689.00
2023-04-01T10:38:35.065Z,93685.00
2023-04-01T10:39:35.117Z,93687.00
2023-04-01T10:40:35.162Z,93687.00
2023-04-01T10:41:35.182Z,93687.00
2023-04-01T10:42:35.198Z,93685.00
2023-04-01T10:43:35.203Z,93685.00
2023-04-01T10:44:35.326Z,93685.00
2023-04-01T10:45:35.782Z,93680.00
2023-04-01T10:46:35.548Z,93677.00
2023-04-01T10:47:35.389Z,93682.00
2023-04-01T10:48:35.418Z,93677.00
2023-04-01T10:49:35.416Z,93675.00
2023-04-01T10:50:35.478Z,93677.00
2023-04-01T10:51:35.484Z,93682.00
2023-04-01T10:52:35.515Z,93677.00
2023-04-01T10:53:35.629Z,93677.00
2023-04-01T10:54:35.565Z,93674.00
2023-04-01T10:55:35.878Z,93677.00
2023-04-01T10:56:35.581Z,93675.00
2023-04-01T10:57:35.666Z,93674.00
2023-04-01T10:58:35.661Z,93672.00
2023-04-01T10:59:35.686Z,93668.00
2023-04-01T11:00:35.726Z,93666.00
2023-04-01T11:01:35.789Z,93670.00
2023-04-01T11:02:35.761Z,93668.00
2023-04-01T11:03:35.855Z,93664.00
2023-04-01T11:04:35.755Z,93666.00
2023-04-01T11:05:36.040Z,93670.00
2023-04-01T11:06:35.842Z,93662.00
2023-04-01T11:07:35.938Z,93662.00
2023-04-01T11:08:35.978Z,93658.00
2023-04-01T11:09:35.958Z,93660.00
2023-04-01T11:10:36.014Z,93654.00
2023-04-01T11:11:36.031Z,93654.00
2023-04-01T11:12:36.019Z,93656.00
2023-04-01T11:13:36.023Z,93650.00
2023-04-01T11:14:36.128Z,93646.00
2023-04-01T11:15:36.526Z,93648.00
2023-04-01T11:16:36.473Z,93648.00
2023-04-01T11:17:36.330Z,93644.00
2023-04-01T11:18:36.312Z,93646.00
2023-04-01T11:19:36.321Z,93646.00
2023-04-01T11:20:36.393Z,93644.00
2023-04-01T11:21:36.441Z,93644.00
2023-04-01T11:22:36.445Z,93638.00
2023-04-01T11:23:36.455Z,93636.00
2023-04-01T11:24:36.478Z,93638.00
2023-04-01T11:25:36.495Z,93634.00
2023-04-01T11:26:36.569Z,93640.00
2023-04-01T11:27:38.961Z,93636.00
2023-04-01T11:28:36.549Z,93634.00
2023-04-01T11:29:37.448Z,93632.00
2023-04-01T11:30:36.556Z,93636.00
2023-04-01T11:31:36.599Z,93630.00
2023-04-01T11:32:36.510Z,93632.00
2023-04-01T11:33:36.525Z,93632.00
2023-04-01T11:34:36.554Z,93634.00
2023-04-01T11:35:36.793Z,93630.00
2023-04-01T11:36:36.686Z,93630.00
2023-04-01T11:37:36.662Z,93632.00
2023-04-01T11:38:36.674Z,93634.00
2023-04-01T11:39:36.721Z,93632.00
2023-04-01T11:40:36.736Z,93619.00
2023-04-01T11:41:36.730Z,93630.00
2023-04-01T11:42:36.783Z,93621.00
2023-04-01T11:43:36.789Z,93621.00
2023-04-01T11:44:36.791Z,93617.00
2023-04-01T11:45:36.828Z,93615.00